sensor_id;sensor_type;location;lat;lon;timestamp;P1;durP1;ratioP1;P2;durP2;ratioP2
33459;SDS011;19795;53.160;6.612;2023-06-14T03:44:41;1043.47;;;538.15;;
33459;SDS011;19795;53.160;6.612;2023-06-14T03:49:34;1999.90;;;999.90;;
33459;SDS011;19795;53.160;6.612;2023-06-14T03:52:00;1512.30;;;760.97;;
33459;SDS011;19795;53.160;6.612;2023-06-14T03:54:27;1999.90;;;999.90;;
33459;SDS011;19795;53.160;6.612;2023-06-14T03:56:53;1516.68;;;764.85;;
33459;SDS011;19795;53.160;6.612;2023-06-14T03:59:19;1999.90;;;999.90;;
33459;SDS011;19795;53.160;6.612;2023-06-14T04:01:45;245.45;;;190.27;;
33459;SDS011;19795;53.160;6.612;2023-06-14T04:04:11;1999.90;;;999.90;;
33459;SDS011;19795;53.160;6.612;2023-06-14T04:06:37;1999.90;;;999.90;;
33459;SDS011;19795;53.160;6.612;2023-06-14T04:09:03;1999.90;;;999.90;;
33459;SDS011;19795;53.160;6.612;2023-06-14T04:11:29;1999.90;;;999.90;;
33459;SDS011;19795;53.160;6.612;2023-06-14T04:13:55;1999.90;;;999.90;;
33459;SDS011;19795;53.160;6.612;2023-06-14T04:16:21;1999.90;;;999.90;;
33459;SDS011;19795;53.160;6.612;2023-06-14T04:18:47;1999.90;;;999.90;;
33459;SDS011;19795;53.160;6.612;2023-06-14T04:21:16;1999.90;;;999.90;;
33459;SDS011;19795;53.160;6.612;2023-06-14T04:23:42;1999.90;;;999.90;;
33459;SDS011;19795;53.160;6.612;2023-06-14T04:26:09;1999.90;;;999.90;;
33459;SDS011;19795;53.160;6.612;2023-06-14T04:28:35;1999.90;;;999.90;;
33459;SDS011;19795;53.160;6.612;2023-06-14T04:31:06;1999.90;;;999.90;;
33459;SDS011;19795;53.160;6.612;2023-06-14T04:33:34;1558.18;;;795.63;;
33459;SDS011;19795;53.160;6.612;2023-06-14T04:36:08;171.05;;;149.10;;
33459;SDS011;19795;53.160;6.612;2023-06-14T04:38:36;1125.78;;;597.28;;
33459;SDS011;19795;53.160;6.612;2023-06-14T04:41:02;1527.35;;;769.70;;
33459;SDS011;19795;53.160;6.612;2023-06-14T04:43:28;1536.25;;;780.25;;
33459;SDS011;19795;53.160;6.612;2023-06-14T04:45:54;373.15;;;334.27;;
33459;SDS011;19795;53.160;6.612;2023-06-14T04:48:21;1999.90;;;999.90;;
33459;SDS011;19795;53.160;6.612;2023-06-14T04:50:47;1999.90;;;999.90;;
33459;SDS011;19795;53.160;6.612;2023-06-14T04:53:18;1999.90;;;999.90;;
33459;SDS011;19795;53.160;6.612;2023-06-14T04:55:46;1999.90;;;999.90;;
33459;SDS011;19795;53.160;6.612;2023-06-14T04:58:12;1535.93;;;782.15;;
33459;SDS011;19795;53.160;6.612;2023-06-14T05:00:38;1548.90;;;791.22;;
33459;SDS011;19795;53.160;6.612;2023-06-14T05:03:03;237.73;;;208.07;;
33459;SDS011;19795;53.160;6.612;2023-06-14T05:05:30;106.10;;;88.07;;
33459;SDS011;19795;53.160;6.612;2023-06-14T05:07:57;273.35;;;245.13;;
33459;SDS011;19795;53.160;6.612;2023-06-14T05:10:24;1521.45;;;764.97;;
33459;SDS011;19795;53.160;6.612;2023-06-14T05:12:49;1999.90;;;999.90;;
33459;SDS011;19795;53.160;6.612;2023-06-14T05:15:17;1999.90;;;999.90;;
33459;SDS011;19795;53.160;6.612;2023-06-14T05:17:46;1999.90;;;999.90;;
33459;SDS011;19795;53.160;6.612;2023-06-14T05:20:20;1999.90;;;999.90;;
33459;SDS011;19795;53.160;6.612;2023-06-14T05:22:47;1999.90;;;999.90;;
33459;SDS011;19795;53.160;6.612;2023-06-14T05:25:22;1541.40;;;775.97;;
33459;SDS011;19795;53.160;6.612;2023-06-14T05:27:50;448.95;;;395.55;;
33459;SDS011;19795;53.160;6.612;2023-06-14T05:30:16;1999.90;;;999.90;;
33459;SDS011;19795;53.160;6.612;2023-06-14T05:32:42;568.53;;;520.40;;
33459;SDS011;19795;53.160;6.612;2023-06-14T05:35:08;677.17;;;625.13;;
33459;SDS011;19795;53.160;6.612;2023-06-14T05:37:34;617.60;;;555.40;;
33459;SDS011;19795;53.160;6.612;2023-06-14T05:39:59;723.90;;;655.10;;
33459;SDS011;19795;53.160;6.612;2023-06-14T05:42:25;903.30;;;832.88;;
33459;SDS011;19795;53.160;6.612;2023-06-14T05:44:51;842.08;;;780.20;;
33459;SDS011;19795;53.160;6.612;2023-06-14T05:47:16;745.53;;;684.15;;
33459;SDS011;19795;53.160;6.612;2023-06-14T05:49:42;764.60;;;694.28;;
33459;SDS011;19795;53.160;6.612;2023-06-14T05:52:08;772.85;;;719.47;;
33459;SDS011;19795;53.160;6.612;2023-06-14T05:54:33;707.97;;;647.88;;
33459;SDS011;19795;53.160;6.612;2023-06-14T05:56:59;877.30;;;808.42;;
33459;SDS011;19795;53.160;6.612;2023-06-14T05:59:26;872.72;;;801.92;;
33459;SDS011;19795;53.160;6.612;2023-06-14T06:01:52;879.33;;;813.85;;
33459;SDS011;19795;53.160;6.612;2023-06-14T06:04:19;802.90;;;744.13;;
33459;SDS011;19795;53.160;6.612;2023-06-14T06:06:45;764.50;;;691.53;;
33459;SDS011;19795;53.160;6.612;2023-06-14T06:09:11;789.63;;;732.45;;
33459;SDS011;19795;53.160;6.612;2023-06-14T06:11:39;830.17;;;752.70;;
33459;SDS011;19795;53.160;6.612;2023-06-14T06:14:05;856.50;;;786.60;;
33459;SDS011;19795;53.160;6.612;2023-06-14T06:16:41;856.05;;;791.30;;
33459;SDS011;19795;53.160;6.612;2023-06-14T06:19:10;898.53;;;826.83;;
33459;SDS011;19795;53.160;6.612;2023-06-14T06:21:36;914.42;;;826.83;;
33459;SDS011;19795;53.160;6.612;2023-06-14T06:24:01;784.70;;;728.33;;
33459;SDS011;19795;53.160;6.612;2023-06-14T06:26:30;845.00;;;779.90;;
33459;SDS011;19795;53.160;6.612;2023-06-14T06:28:56;808.28;;;750.78;;
33459;SDS011;19795;53.160;6.612;2023-06-14T06:31:22;812.95;;;752.38;;
33459;SDS011;19795;53.160;6.612;2023-06-14T06:33:48;877.85;;;810.88;;
33459;SDS011;19795;53.160;6.612;2023-06-14T06:36:13;739.40;;;674.47;;
33459;SDS011;19795;53.160;6.612;2023-06-14T06:38:39;716.08;;;669.60;;
33459;SDS011;19795;53.160;6.612;2023-06-14T06:41:05;786.45;;;732.55;;
33459;SDS011;19795;53.160;6.612;2023-06-14T06:43:31;735.40;;;676.58;;
33459;SDS011;19795;53.160;6.612;2023-06-14T06:45:59;789.65;;;732.28;;
33459;SDS011;19795;53.160;6.612;2023-06-14T06:48:25;674.63;;;632.83;;
33459;SDS011;19795;53.160;6.612;2023-06-14T06:50:50;1999.90;;;999.90;;
33459;SDS011;19795;53.160;6.612;2023-06-14T06:53:17;783.58;;;726.88;;
33459;SDS011;19795;53.160;6.612;2023-06-14T06:55:43;938.05;;;860.65;;
33459;SDS011;19795;53.160;6.612;2023-06-14T06:58:09;767.55;;;714.38;;
33459;SDS011;19795;53.160;6.612;2023-06-14T07:00:35;753.30;;;698.30;;
33459;SDS011;19795;53.160;6.612;2023-06-14T07:03:01;844.35;;;777.78;;
33459;SDS011;19795;53.160;6.612;2023-06-14T07:05:28;788.55;;;732.33;;
33459;SDS011;19795;53.160;6.612;2023-06-14T07:07:54;767.40;;;712.92;;
33459;SDS011;19795;53.160;6.612;2023-06-14T07:10:20;768.63;;;715.25;;
33459;SDS011;19795;53.160;6.612;2023-06-14T07:12:46;740.47;;;688.42;;
33459;SDS011;19795;53.160;6.612;2023-06-14T07:15:12;784.35;;;728.83;;
33459;SDS011;19795;53.160;6.612;2023-06-14T07:17:38;760.22;;;708.35;;
33459;SDS011;19795;53.160;6.612;2023-06-14T07:20:03;712.03;;;663.78;;
33459;SDS011;19795;53.160;6.612;2023-06-14T07:22:33;761.75;;;708.15;;
33459;SDS011;19795;53.160;6.612;2023-06-14T07:24:59;675.60;;;628.83;;
33459;SDS011;19795;53.160;6.612;2023-06-14T07:27:24;773.78;;;712.63;;
33459;SDS011;19795;53.160;6.612;2023-06-14T07:29:50;871.75;;;795.13;;
33459;SDS011;19795;53.160;6.612;2023-06-14T07:32:16;800.72;;;735.08;;
33459;SDS011;19795;53.160;6.612;2023-06-14T07:34:41;802.25;;;727.03;;
33459;SDS011;19795;53.160;6.612;2023-06-14T07:37:07;619.45;;;564.47;;
33459;SDS011;19795;53.160;6.612;2023-06-14T07:39:33;692.38;;;642.88;;
33459;SDS011;19795;53.160;6.612;2023-06-14T07:41:58;764.58;;;706.95;;
33459;SDS011;19795;53.160;6.612;2023-06-14T07:44:24;764.13;;;696.88;;
33459;SDS011;19795;53.160;6.612;2023-06-14T07:46:50;835.97;;;764.95;;
33459;SDS011;19795;53.160;6.612;2023-06-14T07:49:15;774.92;;;713.72;;
33459;SDS011;19795;53.160;6.612;2023-06-14T07:51:41;634.83;;;588.00;;
33459;SDS011;19795;53.160;6.612;2023-06-14T07:54:08;783.33;;;722.45;;
33459;SDS011;19795;53.160;6.612;2023-06-14T07:56:34;639.15;;;588.65;;
33459;SDS011;19795;53.160;6.612;2023-06-14T07:59:00;589.22;;;549.40;;
33459;SDS011;19795;53.160;6.612;2023-06-14T08:01:26;590.15;;;547.03;;
33459;SDS011;19795;53.160;6.612;2023-06-14T08:03:52;698.03;;;642.33;;
33459;SDS011;19795;53.160;6.612;2023-06-14T08:06:18;668.55;;;607.40;;
33459;SDS011;19795;53.160;6.612;2023-06-14T08:08:44;763.67;;;687.03;;
33459;SDS011;19795;53.160;6.612;2023-06-14T08:11:09;552.50;;;500.05;;
33459;SDS011;19795;53.160;6.612;2023-06-14T08:13:35;745.60;;;683.70;;
33459;SDS011;19795;53.160;6.612;2023-06-14T08:16:01;726.20;;;668.33;;
33459;SDS011;19795;53.160;6.612;2023-06-14T08:18:29;669.47;;;621.33;;
33459;SDS011;19795;53.160;6.612;2023-06-14T08:20:55;611.83;;;568.45;;
33459;SDS011;19795;53.160;6.612;2023-06-14T08:23:22;586.08;;;531.13;;
33459;SDS011;19795;53.160;6.612;2023-06-14T08:25:48;707.53;;;652.85;;
33459;SDS011;19795;53.160;6.612;2023-06-14T08:28:13;702.33;;;651.20;;
33459;SDS011;19795;53.160;6.612;2023-06-14T08:30:39;806.60;;;744.30;;
33459;SDS011;19795;53.160;6.612;2023-06-14T08:33:07;615.10;;;574.92;;
33459;SDS011;19795;53.160;6.612;2023-06-14T08:35:33;711.42;;;658.38;;
33459;SDS011;19795;53.160;6.612;2023-06-14T08:38:01;676.63;;;628.22;;
33459;SDS011;19795;53.160;6.612;2023-06-14T08:40:28;768.55;;;710.92;;
33459;SDS011;19795;53.160;6.612;2023-06-14T08:42:55;748.50;;;691.90;;
33459;SDS011;19795;53.160;6.612;2023-06-14T08:45:22;763.40;;;706.33;;
33459;SDS011;19795;53.160;6.612;2023-06-14T08:47:52;734.90;;;675.42;;
33459;SDS011;19795;53.160;6.612;2023-06-14T08:52:51;614.45;;;566.10;;
33459;SDS011;19795;53.160;6.612;2023-06-14T08:55:19;762.88;;;695.90;;
33459;SDS011;19795;53.160;6.612;2023-06-14T08:57:50;743.67;;;686.35;;
33459;SDS011;19795;53.160;6.612;2023-06-14T09:00:19;708.90;;;654.53;;
33459;SDS011;19795;53.160;6.612;2023-06-14T09:02:46;789.60;;;724.67;;
33459;SDS011;19795;53.160;6.612;2023-06-14T09:05:12;644.05;;;599.03;;
33459;SDS011;19795;53.160;6.612;2023-06-14T09:07:41;684.83;;;633.20;;
33459;SDS011;19795;53.160;6.612;2023-06-14T09:10:13;844.67;;;773.47;;
33459;SDS011;19795;53.160;6.612;2023-06-14T09:12:40;711.40;;;644.17;;
33459;SDS011;19795;53.160;6.612;2023-06-14T09:15:06;656.28;;;609.25;;
33459;SDS011;19795;53.160;6.612;2023-06-14T09:17:33;781.55;;;715.03;;
33459;SDS011;19795;53.160;6.612;2023-06-14T09:20:04;811.70;;;738.03;;
33459;SDS011;19795;53.160;6.612;2023-06-14T09:22:31;657.53;;;614.47;;
33459;SDS011;19795;53.160;6.612;2023-06-14T09:24:57;739.70;;;680.97;;
33459;SDS011;19795;53.160;6.612;2023-06-14T09:27:25;1391.88;;;758.88;;
33459;SDS011;19795;53.160;6.612;2023-06-14T09:29:52;776.65;;;712.72;;
33459;SDS011;19795;53.160;6.612;2023-06-14T09:32:17;794.72;;;732.88;;
33459;SDS011;19795;53.160;6.612;2023-06-14T09:34:43;711.17;;;658.08;;
33459;SDS011;19795;53.160;6.612;2023-06-14T09:37:10;662.08;;;616.00;;
33459;SDS011;19795;53.160;6.612;2023-06-14T09:39:48;796.65;;;737.45;;
33459;SDS011;19795;53.160;6.612;2023-06-14T09:42:18;671.28;;;623.80;;
33459;SDS011;19795;53.160;6.612;2023-06-14T09:44:48;672.22;;;626.40;;
33459;SDS011;19795;53.160;6.612;2023-06-14T09:47:14;624.33;;;584.85;;
33459;SDS011;19795;53.160;6.612;2023-06-14T09:49:41;570.97;;;537.20;;
33459;SDS011;19795;53.160;6.612;2023-06-14T09:52:10;580.42;;;545.60;;
33459;SDS011;19795;53.160;6.612;2023-06-14T09:54:41;726.97;;;669.55;;
33459;SDS011;19795;53.160;6.612;2023-06-14T09:57:09;636.55;;;595.75;;
33459;SDS011;19795;53.160;6.612;2023-06-14T09:59:36;622.70;;;576.85;;
33459;SDS011;19795;53.160;6.612;2023-06-14T10:02:14;752.22;;;675.85;;
33459;SDS011;19795;53.160;6.612;2023-06-14T10:04:55;572.70;;;538.63;;
33459;SDS011;19795;53.160;6.612;2023-06-14T10:07:48;649.67;;;608.22;;
33459;SDS011;19795;53.160;6.612;2023-06-14T10:10:18;742.80;;;676.35;;
33459;SDS011;19795;53.160;6.612;2023-06-14T10:12:44;617.95;;;576.13;;
33459;SDS011;19795;53.160;6.612;2023-06-14T10:15:12;668.38;;;619.15;;
33459;SDS011;19795;53.160;6.612;2023-06-14T10:17:55;796.85;;;734.72;;
33459;SDS011;19795;53.160;6.612;2023-06-14T10:20:33;734.53;;;671.65;;
33459;SDS011;19795;53.160;6.612;2023-06-14T10:23:18;850.72;;;670.80;;
33459;SDS011;19795;53.160;6.612;2023-06-14T10:25:49;744.70;;;676.60;;
33459;SDS011;19795;53.160;6.612;2023-06-14T10:28:19;935.45;;;854.83;;
33459;SDS011;19795;53.160;6.612;2023-06-14T10:31:05;730.63;;;659.25;;
33459;SDS011;19795;53.160;6.612;2023-06-14T10:33:33;631.40;;;365.38;;
33459;SDS011;19795;53.160;6.612;2023-06-14T10:36:09;736.17;;;681.05;;
33459;SDS011;19795;53.160;6.612;2023-06-14T10:41:50;815.85;;;752.25;;
33459;SDS011;19795;53.160;6.612;2023-06-14T10:49:16;840.05;;;773.47;;
33459;SDS011;19795;53.160;6.612;2023-06-14T10:51:45;678.25;;;633.83;;
33459;SDS011;19795;53.160;6.612;2023-06-14T10:54:21;681.13;;;630.88;;
33459;SDS011;19795;53.160;6.612;2023-06-14T10:56:51;708.53;;;658.85;;
33459;SDS011;19795;53.160;6.612;2023-06-14T10:59:18;971.00;;;801.35;;
33459;SDS011;19795;53.160;6.612;2023-06-14T11:01:58;726.60;;;676.95;;
33459;SDS011;19795;53.160;6.612;2023-06-14T11:07:23;726.05;;;674.65;;
33459;SDS011;19795;53.160;6.612;2023-06-14T11:12:59;643.10;;;600.17;;
33459;SDS011;19795;53.160;6.612;2023-06-14T11:15:29;677.08;;;626.13;;
33459;SDS011;19795;53.160;6.612;2023-06-14T11:18:04;759.55;;;702.88;;
33459;SDS011;19795;53.160;6.612;2023-06-14T11:20:32;644.10;;;591.00;;
33459;SDS011;19795;53.160;6.612;2023-06-14T11:22:59;766.17;;;710.50;;
33459;SDS011;19795;53.160;6.612;2023-06-14T11:25:25;713.53;;;655.22;;
33459;SDS011;19795;53.160;6.612;2023-06-14T11:27:53;743.40;;;687.63;;
33459;SDS011;19795;53.160;6.612;2023-06-14T11:30:19;736.58;;;680.45;;
33459;SDS011;19795;53.160;6.612;2023-06-14T11:32:48;657.00;;;614.55;;
33459;SDS011;19795;53.160;6.612;2023-06-14T11:35:15;918.00;;;598.50;;
33459;SDS011;19795;53.160;6.612;2023-06-14T11:37:42;773.03;;;708.03;;
33459;SDS011;19795;53.160;6.612;2023-06-14T11:40:09;786.05;;;726.25;;
33459;SDS011;19795;53.160;6.612;2023-06-14T11:42:37;466.60;;;421.17;;
33459;SDS011;19795;53.160;6.612;2023-06-14T11:45:03;662.78;;;605.70;;
33459;SDS011;19795;53.160;6.612;2023-06-14T11:47:32;585.75;;;530.45;;
33459;SDS011;19795;53.160;6.612;2023-06-14T11:49:59;520.95;;;477.80;;
33459;SDS011;19795;53.160;6.612;2023-06-14T11:52:28;613.20;;;564.63;;
33459;SDS011;19795;53.160;6.612;2023-06-14T11:54:54;569.15;;;489.52;;
33459;SDS011;19795;53.160;6.612;2023-06-14T11:57:20;746.47;;;684.67;;
33459;SDS011;19795;53.160;6.612;2023-06-14T11:59:46;730.47;;;647.75;;
33459;SDS011;19795;53.160;6.612;2023-06-14T12:02:14;868.08;;;796.38;;
33459;SDS011;19795;53.160;6.612;2023-06-14T12:04:40;726.97;;;673.38;;
33459;SDS011;19795;53.160;6.612;2023-06-14T12:07:13;784.40;;;726.58;;
33459;SDS011;19795;53.160;6.612;2023-06-14T12:12:18;472.33;;;440.60;;
33459;SDS011;19795;53.160;6.612;2023-06-14T12:14:46;300.98;;;285.05;;
33459;SDS011;19795;53.160;6.612;2023-06-14T12:17:12;596.20;;;558.25;;
33459;SDS011;19795;53.160;6.612;2023-06-14T12:19:41;576.17;;;537.78;;
33459;SDS011;19795;53.160;6.612;2023-06-14T12:22:14;667.10;;;615.30;;
33459;SDS011;19795;53.160;6.612;2023-06-14T12:24:44;535.60;;;501.27;;
33459;SDS011;19795;53.160;6.612;2023-06-14T12:27:10;800.22;;;738.25;;
33459;SDS011;19795;53.160;6.612;2023-06-14T12:29:41;642.38;;;596.63;;
33459;SDS011;19795;53.160;6.612;2023-06-14T12:32:10;530.58;;;492.95;;
33459;SDS011;19795;53.160;6.612;2023-06-14T12:34:36;614.53;;;573.08;;
33459;SDS011;19795;53.160;6.612;2023-06-14T12:37:02;700.63;;;651.50;;
33459;SDS011;19795;53.160;6.612;2023-06-14T12:39:29;636.90;;;582.47;;
33459;SDS011;19795;53.160;6.612;2023-06-14T12:41:56;714.13;;;663.50;;
33459;SDS011;19795;53.160;6.612;2023-06-14T12:44:23;563.75;;;515.90;;
33459;SDS011;19795;53.160;6.612;2023-06-14T12:46:51;550.80;;;517.13;;
33459;SDS011;19795;53.160;6.612;2023-06-14T12:49:19;608.17;;;564.70;;
33459;SDS011;19795;53.160;6.612;2023-06-14T12:51:45;668.58;;;621.47;;
33459;SDS011;19795;53.160;6.612;2023-06-14T12:54:11;697.17;;;642.90;;
33459;SDS011;19795;53.160;6.612;2023-06-14T12:56:37;756.58;;;703.20;;
33459;SDS011;19795;53.160;6.612;2023-06-14T12:59:03;1378.32;;;846.05;;
33459;SDS011;19795;53.160;6.612;2023-06-14T13:01:29;663.70;;;616.13;;
33459;SDS011;19795;53.160;6.612;2023-06-14T13:04:00;609.75;;;565.40;;
33459;SDS011;19795;53.160;6.612;2023-06-14T13:06:25;661.05;;;613.50;;
33459;SDS011;19795;53.160;6.612;2023-06-14T13:08:51;638.53;;;594.13;;
33459;SDS011;19795;53.160;6.612;2023-06-14T13:11:22;531.15;;;481.88;;
33459;SDS011;19795;53.160;6.612;2023-06-14T13:13:48;688.75;;;638.40;;
33459;SDS011;19795;53.160;6.612;2023-06-14T13:16:14;690.60;;;640.03;;
33459;SDS011;19795;53.160;6.612;2023-06-14T13:18:40;677.97;;;623.53;;
33459;SDS011;19795;53.160;6.612;2023-06-14T13:21:05;709.85;;;656.70;;
33459;SDS011;19795;53.160;6.612;2023-06-14T13:23:31;634.33;;;591.75;;
33459;SDS011;19795;53.160;6.612;2023-06-14T13:25:56;705.28;;;658.17;;
33459;SDS011;19795;53.160;6.612;2023-06-14T13:28:22;573.35;;;537.90;;
33459;SDS011;19795;53.160;6.612;2023-06-14T13:30:48;767.33;;;707.83;;
33459;SDS011;19795;53.160;6.612;2023-06-14T13:33:13;694.35;;;644.17;;
33459;SDS011;19795;53.160;6.612;2023-06-14T13:35:39;719.47;;;666.97;;
33459;SDS011;19795;53.160;6.612;2023-06-14T13:38:05;545.00;;;509.58;;
33459;SDS011;19795;53.160;6.612;2023-06-14T13:40:30;529.40;;;497.45;;
33459;SDS011;19795;53.160;6.612;2023-06-14T13:42:56;675.38;;;622.30;;
33459;SDS011;19795;53.160;6.612;2023-06-14T13:45:22;493.50;;;461.42;;
33459;SDS011;19795;53.160;6.612;2023-06-14T13:47:47;551.83;;;516.25;;
33459;SDS011;19795;53.160;6.612;2023-06-14T13:50:13;651.00;;;610.45;;
33459;SDS011;19795;53.160;6.612;2023-06-14T13:52:39;384.02;;;356.05;;
33459;SDS011;19795;53.160;6.612;2023-06-14T13:55:05;608.90;;;570.28;;
33459;SDS011;19795;53.160;6.612;2023-06-14T13:57:32;677.53;;;630.90;;
33459;SDS011;19795;53.160;6.612;2023-06-14T13:59:58;548.70;;;491.88;;
33459;SDS011;19795;53.160;6.612;2023-06-14T14:02:29;729.05;;;676.25;;
33459;SDS011;19795;53.160;6.612;2023-06-14T14:04:57;852.40;;;788.53;;
33459;SDS011;19795;53.160;6.612;2023-06-14T14:07:23;622.80;;;583.63;;
33459;SDS011;19795;53.160;6.612;2023-06-14T14:09:49;636.75;;;595.28;;
33459;SDS011;19795;53.160;6.612;2023-06-14T14:12:14;568.08;;;534.92;;
33459;SDS011;19795;53.160;6.612;2023-06-14T14:14:40;510.27;;;479.33;;
33459;SDS011;19795;53.160;6.612;2023-06-14T14:17:06;714.35;;;662.00;;
33459;SDS011;19795;53.160;6.612;2023-06-14T14:19:34;728.80;;;676.08;;
33459;SDS011;19795;53.160;6.612;2023-06-14T14:22:00;756.47;;;699.90;;
33459;SDS011;19795;53.160;6.612;2023-06-14T14:24:26;731.13;;;676.53;;
33459;SDS011;19795;53.160;6.612;2023-06-14T14:26:52;531.00;;;488.83;;
33459;SDS011;19795;53.160;6.612;2023-06-14T14:29:19;650.60;;;607.63;;
33459;SDS011;19795;53.160;6.612;2023-06-14T14:31:44;601.08;;;559.03;;
33459;SDS011;19795;53.160;6.612;2023-06-14T14:34:10;620.72;;;581.88;;
33459;SDS011;19795;53.160;6.612;2023-06-14T14:36:37;613.55;;;575.78;;
33459;SDS011;19795;53.160;6.612;2023-06-14T14:39:07;514.25;;;483.42;;
33459;SDS011;19795;53.160;6.612;2023-06-14T14:41:33;544.25;;;512.47;;
33459;SDS011;19795;53.160;6.612;2023-06-14T14:43:58;585.15;;;550.25;;
33459;SDS011;19795;53.160;6.612;2023-06-14T14:46:25;490.33;;;461.50;;
33459;SDS011;19795;53.160;6.612;2023-06-14T14:48:52;724.13;;;672.85;;
33459;SDS011;19795;53.160;6.612;2023-06-14T14:51:18;680.28;;;634.05;;
33459;SDS011;19795;53.160;6.612;2023-06-14T14:53:44;736.42;;;676.63;;
33459;SDS011;19795;53.160;6.612;2023-06-14T14:56:10;568.53;;;533.28;;
33459;SDS011;19795;53.160;6.612;2023-06-14T14:58:37;619.65;;;581.00;;
33459;SDS011;19795;53.160;6.612;2023-06-14T15:01:02;714.20;;;666.45;;
33459;SDS011;19795;53.160;6.612;2023-06-14T15:03:30;705.83;;;659.13;;
33459;SDS011;19795;53.160;6.612;2023-06-14T15:05:56;674.25;;;632.22;;
33459;SDS011;19795;53.160;6.612;2023-06-14T15:08:22;635.45;;;595.95;;
33459;SDS011;19795;53.160;6.612;2023-06-14T15:10:47;684.60;;;639.70;;
33459;SDS011;19795;53.160;6.612;2023-06-14T15:13:14;739.55;;;688.33;;
33459;SDS011;19795;53.160;6.612;2023-06-14T15:15:40;677.78;;;630.78;;
33459;SDS011;19795;53.160;6.612;2023-06-14T15:18:06;668.30;;;609.47;;
33459;SDS011;19795;53.160;6.612;2023-06-14T15:20:31;613.22;;;558.45;;
33459;SDS011;19795;53.160;6.612;2023-06-14T15:22:57;567.83;;;520.40;;
33459;SDS011;19795;53.160;6.612;2023-06-14T15:25:27;561.67;;;526.08;;
33459;SDS011;19795;53.160;6.612;2023-06-14T15:27:53;685.83;;;641.45;;
33459;SDS011;19795;53.160;6.612;2023-06-14T15:30:20;667.03;;;623.97;;
33459;SDS011;19795;53.160;6.612;2023-06-14T15:32:47;721.13;;;672.58;;
33459;SDS011;19795;53.160;6.612;2023-06-14T15:35:13;641.60;;;602.33;;
33459;SDS011;19795;53.160;6.612;2023-06-14T15:37:40;604.22;;;567.90;;
33459;SDS011;19795;53.160;6.612;2023-06-14T15:40:05;739.97;;;689.55;;
33459;SDS011;19795;53.160;6.612;2023-06-14T15:42:31;689.78;;;644.40;;
33459;SDS011;19795;53.160;6.612;2023-06-14T15:44:57;707.72;;;662.50;;
33459;SDS011;19795;53.160;6.612;2023-06-14T15:47:23;732.65;;;681.90;;
33459;SDS011;19795;53.160;6.612;2023-06-14T15:49:49;585.53;;;551.15;;
33459;SDS011;19795;53.160;6.612;2023-06-14T15:52:14;639.10;;;579.15;;
33459;SDS011;19795;53.160;6.612;2023-06-14T15:54:40;639.97;;;597.65;;
33459;SDS011;19795;53.160;6.612;2023-06-14T15:57:06;617.45;;;581.35;;
33459;SDS011;19795;53.160;6.612;2023-06-14T15:59:32;718.33;;;670.58;;
33459;SDS011;19795;53.160;6.612;2023-06-14T16:01:57;566.75;;;533.30;;
33459;SDS011;19795;53.160;6.612;2023-06-14T16:04:23;574.40;;;540.97;;
33459;SDS011;19795;53.160;6.612;2023-06-14T16:06:49;543.95;;;512.67;;
33459;SDS011;19795;53.160;6.612;2023-06-14T16:09:14;623.78;;;582.88;;
33459;SDS011;19795;53.160;6.612;2023-06-14T16:11:40;666.47;;;618.67;;
33459;SDS011;19795;53.160;6.612;2023-06-14T16:14:06;623.33;;;583.38;;
33459;SDS011;19795;53.160;6.612;2023-06-14T16:16:31;672.60;;;628.33;;
33459;SDS011;19795;53.160;6.612;2023-06-14T16:18:57;625.63;;;586.92;;
33459;SDS011;19795;53.160;6.612;2023-06-14T16:21:23;590.33;;;556.85;;
33459;SDS011;19795;53.160;6.612;2023-06-14T16:23:48;801.17;;;740.92;;
33459;SDS011;19795;53.160;6.612;2023-06-14T16:26:14;658.15;;;618.17;;
33459;SDS011;19795;53.160;6.612;2023-06-14T16:28:40;654.47;;;614.65;;
33459;SDS011;19795;53.160;6.612;2023-06-14T16:31:10;598.50;;;563.85;;
33459;SDS011;19795;53.160;6.612;2023-06-14T16:33:39;596.05;;;561.25;;
33459;SDS011;19795;53.160;6.612;2023-06-14T16:36:05;547.80;;;517.53;;
33459;SDS011;19795;53.160;6.612;2023-06-14T16:38:30;621.13;;;585.80;;
33459;SDS011;19795;53.160;6.612;2023-06-14T16:40:57;676.67;;;633.83;;
33459;SDS011;19795;53.160;6.612;2023-06-14T16:43:23;581.42;;;541.97;;
33459;SDS011;19795;53.160;6.612;2023-06-14T16:45:49;435.00;;;399.60;;
33459;SDS011;19795;53.160;6.612;2023-06-14T16:48:15;798.33;;;716.75;;
33459;SDS011;19795;53.160;6.612;2023-06-14T16:50:40;720.00;;;664.08;;
33459;SDS011;19795;53.160;6.612;2023-06-14T16:53:06;465.98;;;436.27;;
33459;SDS011;19795;53.160;6.612;2023-06-14T16:55:32;674.13;;;616.22;;
33459;SDS011;19795;53.160;6.612;2023-06-14T16:57:59;747.70;;;682.00;;
33459;SDS011;19795;53.160;6.612;2023-06-14T17:00:25;825.70;;;758.72;;
33459;SDS011;19795;53.160;6.612;2023-06-14T17:02:52;509.88;;;480.30;;
33459;SDS011;19795;53.160;6.612;2023-06-14T17:05:21;695.40;;;639.35;;
33459;SDS011;19795;53.160;6.612;2023-06-14T17:07:47;702.65;;;637.80;;
33459;SDS011;19795;53.160;6.612;2023-06-14T17:10:12;771.17;;;709.75;;
33459;SDS011;19795;53.160;6.612;2023-06-14T17:12:38;1017.20;;;819.35;;
33459;SDS011;19795;53.160;6.612;2023-06-14T17:15:06;823.70;;;732.55;;
33459;SDS011;19795;53.160;6.612;2023-06-14T17:17:32;914.70;;;716.65;;
33459;SDS011;19795;53.160;6.612;2023-06-14T17:19:58;1300.68;;;744.25;;
33459;SDS011;19795;53.160;6.612;2023-06-14T17:22:23;869.47;;;790.95;;
33459;SDS011;19795;53.160;6.612;2023-06-14T17:24:49;845.55;;;776.97;;
33459;SDS011;19795;53.160;6.612;2023-06-14T17:27:15;760.50;;;679.55;;
33459;SDS011;19795;53.160;6.612;2023-06-14T17:29:41;897.53;;;810.90;;
33459;SDS011;19795;53.160;6.612;2023-06-14T17:32:07;758.97;;;707.63;;
33459;SDS011;19795;53.160;6.612;2023-06-14T17:34:33;828.88;;;760.47;;
33459;SDS011;19795;53.160;6.612;2023-06-14T17:36:59;783.58;;;727.97;;
33459;SDS011;19795;53.160;6.612;2023-06-14T17:39:25;806.72;;;746.35;;
33459;SDS011;19795;53.160;6.612;2023-06-14T17:41:51;823.83;;;759.65;;
33459;SDS011;19795;53.160;6.612;2023-06-14T17:44:16;863.78;;;788.05;;
33459;SDS011;19795;53.160;6.612;2023-06-14T17:46:42;982.33;;;706.63;;
33459;SDS011;19795;53.160;6.612;2023-06-14T17:49:09;751.83;;;702.15;;
33459;SDS011;19795;53.160;6.612;2023-06-14T17:51:35;701.10;;;655.28;;
33459;SDS011;19795;53.160;6.612;2023-06-14T17:54:00;793.80;;;735.90;;
33459;SDS011;19795;53.160;6.612;2023-06-14T17:56:26;770.47;;;715.08;;
33459;SDS011;19795;53.160;6.612;2023-06-14T17:58:52;828.65;;;678.17;;
33459;SDS011;19795;53.160;6.612;2023-06-14T18:01:20;737.58;;;687.97;;